Time;durP1;ratioP1;P1;durP2;ratioP2;P2;SDS_P1;SDS_P2;PMS_P1;PMS_P2;Temp;Humidity;BMP_temperature;BMP_pressure;BME280_temperature;BME280_humidity;BME280_pressure;Samples;Min_cycle;Max_cycle;Signal;HPM_P1;HPM_P2
2021/11/11 00:01:36;;;;;;;43.55;26.55;;;8.40;99.90;;;;;;5047225;28;20139;-52
2021/11/11 00:04:02;;;;;;;48.58;25.88;;;8.40;99.90;;;;;;5033843;28;20044;-55
2021/11/11 00:06:29;;;;;;;38.33;24.77;;;8.40;99.90;;;;;;5044851;28;20112;-54
2021/11/11 00:08:54;;;;;;;41.05;24.33;;;8.40;99.90;;;;;;5035793;28;20033;-55
2021/11/11 00:11:20;;;;;;;40.25;25.65;;;8.40;99.90;;;;;;5048306;28;20020;-54
2021/11/11 00:13:46;;;;;;;46.72;27.05;;;8.40;99.90;;;;;;5047224;28;20100;-56
2021/11/11 00:16:11;;;;;;;45.85;26.92;;;8.40;99.90;;;;;;5036041;28;20028;-52
2021/11/11 00:18:37;;;;;;;42.30;26.30;;;8.40;99.90;;;;;;5038771;28;20450;-53
2021/11/11 00:21:06;;;;;;;41.08;25.73;;;8.40;99.90;;;;;;5045372;28;20086;-55
2021/11/11 00:23:31;;;;;;;39.70;24.88;;;8.40;99.90;;;;;;5046268;28;20025;-53
2021/11/11 00:25:57;;;;;;;44.08;25.13;;;8.40;99.90;;;;;;5037865;28;20040;-55
2021/11/11 00:28:22;;;;;;;46.53;26.70;;;8.40;99.90;;;;;;5044371;28;20032;-52
2021/11/11 00:30:48;;;;;;;50.80;27.92;;;8.40;99.90;;;;;;5028683;28;20021;-53
2021/11/11 00:33:14;;;;;;;46.72;27.75;;;8.40;99.90;;;;;;5044971;28;20029;-56
2021/11/11 00:35:39;;;;;;;54.95;28.95;;;8.40;99.90;;;;;;5044244;28;20033;-52
2021/11/11 00:38:05;;;;;;;53.90;27.77;;;8.40;99.90;;;;;;5035579;28;20024;-55
2021/11/11 00:40:32;;;;;;;45.42;27.35;;;8.40;99.90;;;;;;5048786;28;20037;-53
2021/11/11 00:42:59;;;;;;;43.72;26.63;;;8.40;99.90;;;;;;5042650;28;20117;-53
2021/11/11 00:45:25;;;;;;;47.67;28.08;;;8.40;99.90;;;;;;5035658;28;20570;-53
2021/11/11 00:47:51;;;;;;;48.78;26.70;;;8.40;99.90;;;;;;5046743;28;20119;-52
2021/11/11 00:50:19;;;;;;;47.72;25.95;;;8.40;99.90;;;;;;5043737;28;20105;-57
2021/11/11 00:52:46;;;;;;;43.78;26.65;;;8.40;99.90;;;;;;5040373;28;20021;-52
2021/11/11 00:55:11;;;;;;;45.50;26.27;;;8.40;99.90;;;;;;5040991;28;20022;-53
2021/11/11 00:57:38;;;;;;;55.83;28.13;;;8.40;99.90;;;;;;5043252;28;20063;-55
2021/11/11 01:00:10;;;;;;;49.13;28.38;;;8.40;99.90;;;;;;5042532;28;20057;-56
2021/11/11 01:02:37;;;;;;;52.25;26.85;;;8.40;99.90;;;;;;5032170;28;20091;-54
2021/11/11 01:05:04;;;;;;;50.05;26.92;;;8.40;99.90;;;;;;5037671;28;20026;-53
2021/11/11 01:07:33;;;;;;;49.38;27.20;;;8.40;99.90;;;;;;5045716;28;20025;-55
2021/11/11 01:09:58;;;;;;;49.00;27.10;;;8.40;99.90;;;;;;5038959;28;20033;-56
2021/11/11 01:12:24;;;;;;;47.25;27.10;;;8.40;99.90;;;;;;5050200;28;20013;-53
2021/11/11 01:14:50;;;;;;;52.85;27.63;;;8.40;99.90;;;;;;5039815;28;20396;-53
2021/11/11 01:17:15;;;;;;;59.75;29.25;;;8.40;99.90;;;;;;5040458;28;20108;-51
2021/11/11 01:19:41;;;;;;;59.50;27.77;;;8.40;99.90;;;;;;5059212;28;20031;-55
2021/11/11 01:22:06;;;;;;;51.28;27.85;;;8.40;99.90;;;;;;5063771;28;20042;-51
2021/11/11 01:24:33;;;;;;;64.30;29.30;;;8.40;99.90;;;;;;5045437;28;20044;-52
2021/11/11 01:26:58;;;;;;;56.42;30.25;;;8.40;99.90;;;;;;5035448;28;20622;-52
2021/11/11 01:29:24;;;;;;;52.58;29.92;;;8.40;99.90;;;;;;5041087;28;20025;-52
2021/11/11 01:31:50;;;;;;;62.13;31.02;;;8.40;99.90;;;;;;5043340;28;20025;-54
2021/11/11 01:34:15;;;;;;;61.20;30.88;;;8.40;99.90;;;;;;5048393;28;20504;-52
2021/11/11 01:36:41;;;;;;;63.25;31.60;;;8.40;99.90;;;;;;5034981;28;20036;-55
2021/11/11 01:39:07;;;;;;;53.30;29.17;;;8.40;99.90;;;;;;5049549;28;20020;-55
2021/11/11 01:41:33;;;;;;;48.05;27.75;;;8.40;99.90;;;;;;5034502;28;20069;-57
2021/11/11 01:43:59;;;;;;;55.97;29.92;;;8.40;99.90;;;;;;5048566;28;20443;-53
2021/11/11 01:46:24;;;;;;;56.40;30.33;;;8.40;99.90;;;;;;5031122;28;20033;-53
2021/11/11 01:48:50;;;;;;;62.25;31.80;;;8.40;99.90;;;;;;5032240;28;20029;-55
2021/11/11 01:51:17;;;;;;;57.65;31.83;;;8.40;99.90;;;;;;5043868;28;20029;-53
2021/11/11 01:53:43;;;;;;;50.47;27.55;;;8.40;99.90;;;;;;5033995;28;20029;-56
2021/11/11 01:56:09;;;;;;;52.55;29.13;;;8.40;99.90;;;;;;5034197;28;20045;-54
2021/11/11 01:58:35;;;;;;;52.58;28.45;;;8.40;99.90;;;;;;5049243;28;20598;-53
2021/11/11 02:01:01;;;;;;;53.47;28.52;;;8.30;99.90;;;;;;5033205;28;20044;-55
2021/11/11 02:03:27;;;;;;;44.67;25.85;;;8.40;99.90;;;;;;5037447;28;20028;-54
2021/11/11 02:05:52;;;;;;;45.47;27.20;;;8.40;99.90;;;;;;5050492;28;20394;-54
2021/11/11 02:08:18;;;;;;;54.20;31.33;;;8.40;99.90;;;;;;5048014;28;20660;-54
2021/11/11 02:10:44;;;;;;;47.25;28.45;;;8.40;99.90;;;;;;5044530;28;20066;-56
2021/11/11 02:13:10;;;;;;;55.53;27.60;;;8.40;99.90;;;;;;5038210;28;20028;-55
2021/11/11 02:15:37;;;;;;;52.00;27.15;;;8.40;99.90;;;;;;5042652;28;20112;-50
2021/11/11 02:18:05;;;;;;;48.10;25.85;;;8.30;99.90;;;;;;5031050;28;20021;-53
2021/11/11 02:20:33;;;;;;;47.60;25.27;;;8.40;99.90;;;;;;5045057;28;20565;-53
2021/11/11 02:23:00;;;;;;;45.47;26.58;;;8.30;99.90;;;;;;5045110;28;20029;-54
2021/11/11 02:25:27;;;;;;;51.08;29.00;;;8.40;99.90;;;;;;5036043;28;20033;-52
2021/11/11 02:27:56;;;;;;;50.60;26.00;;;8.40;99.90;;;;;;5044221;28;20080;-54
2021/11/11 02:30:23;;;;;;;39.63;24.63;;;8.40;99.90;;;;;;5038338;28;20092;-52
2021/11/11 02:32:50;;;;;;;51.20;26.88;;;8.40;99.90;;;;;;5043903;28;20024;-55
2021/11/11 02:35:17;;;;;;;47.25;26.73;;;8.40;99.90;;;;;;5033094;28;20390;-57
2021/11/11 02:37:44;;;;;;;41.70;25.20;;;8.40;99.90;;;;;;5031172;28;20040;-53
2021/11/11 02:40:13;;;;;;;45.72;25.52;;;8.40;99.90;;;;;;5032579;28;20496;-55
2021/11/11 02:42:41;;;;;;;51.25;25.65;;;8.40;99.90;;;;;;5037525;28;20392;-52
2021/11/11 02:45:08;;;;;;;55.55;28.13;;;8.40;99.90;;;;;;5034988;28;20021;-52
2021/11/11 02:47:35;;;;;;;48.47;27.67;;;8.40;99.90;;;;;;5043805;28;20026;-54
2021/11/11 02:50:01;;;;;;;44.58;25.05;;;8.40;99.90;;;;;;5030392;28;20029;-52
2021/11/11 02:52:27;;;;;;;43.75;25.27;;;8.40;99.90;;;;;;5047144;28;20029;-52
2021/11/11 02:54:52;;;;;;;48.47;27.08;;;8.40;99.90;;;;;;5048798;28;20037;-53
2021/11/11 02:57:35;;;;;;;50.80;27.92;;;8.40;99.90;;;;;;5033996;28;20162;-56
2021/11/11 03:00:29;;;;;;;49.15;27.25;;;8.40;99.90;;;;;;5040373;28;20111;-51
2021/11/11 03:02:55;;;;;;;54.40;25.88;;;8.40;99.90;;;;;;5043532;28;20083;-53
2021/11/11 03:05:24;;;;;;;47.80;26.15;;;8.40;99.90;;;;;;5049765;28;20036;-55
2021/11/11 03:07:50;;;;;;;50.65;26.77;;;8.40;99.90;;;;;;5048456;28;20514;-51
2021/11/11 03:10:23;;;;;;;48.65;26.20;;;8.40;99.90;;;;;;5044428;28;20032;-56
2021/11/11 03:12:50;;;;;;;54.67;28.17;;;8.40;99.90;;;;;;5029839;28;20018;-55
2021/11/11 03:15:17;;;;;;;49.22;26.88;;;8.40;99.90;;;;;;5030031;28;20098;-53
2021/11/11 03:17:43;;;;;;;52.67;26.33;;;8.40;99.90;;;;;;5044536;28;20087;-54
2021/11/11 03:20:11;;;;;;;56.10;29.08;;;8.40;99.90;;;;;;5037067;28;20427;-53
2021/11/11 03:22:37;;;;;;;50.58;27.40;;;8.40;99.90;;;;;;5037228;28;20515;-54
2021/11/11 03:25:03;;;;;;;48.03;27.40;;;8.40;99.90;;;;;;5043000;28;20041;-52
2021/11/11 03:27:31;;;;;;;49.08;26.60;;;8.40;99.90;;;;;;5047623;28;20041;-55
2021/11/11 03:29:56;;;;;;;50.10;28.20;;;8.40;99.90;;;;;;5038753;28;20134;-53
2021/11/11 03:32:22;;;;;;;41.85;26.00;;;8.40;99.90;;;;;;5041438;28;20063;-53
2021/11/11 03:34:49;;;;;;;48.25;26.98;;;8.40;99.90;;;;;;5045834;28;20456;-53
2021/11/11 03:37:15;;;;;;;42.25;24.08;;;8.40;99.90;;;;;;5032500;28;20022;-53
2021/11/11 03:39:40;;;;;;;52.70;27.73;;;8.40;99.90;;;;;;5029891;28;20113;-53
2021/11/11 03:42:08;;;;;;;56.63;26.98;;;8.40;99.90;;;;;;5032613;28;20105;-53
2021/11/11 03:44:34;;;;;;;48.03;27.48;;;8.50;99.90;;;;;;5048691;28;20132;-54
2021/11/11 03:47:02;;;;;;;47.92;26.60;;;8.40;99.90;;;;;;5047705;28;20104;-53
2021/11/11 03:49:28;;;;;;;53.53;27.65;;;8.40;99.90;;;;;;5045044;28;20091;-52
2021/11/11 03:51:54;;;;;;;48.15;25.90;;;8.50;99.90;;;;;;5047848;28;20025;-53
2021/11/11 03:54:22;;;;;;;53.08;26.42;;;8.40;99.90;;;;;;5038265;28;20036;-54
2021/11/11 03:56:48;;;;;;;51.25;27.15;;;8.40;99.90;;;;;;5042916;28;20025;-54
2021/11/11 03:59:15;;;;;;;51.00;27.58;;;8.40;99.90;;;;;;5031845;28;20022;-54
2021/11/11 04:01:42;;;;;;;45.78;26.02;;;8.40;99.90;;;;;;5040252;28;20070;-55
2021/11/11 04:04:07;;;;;;;50.10;25.60;;;8.40;99.90;;;;;;5040072;28;20094;-54
2021/11/11 04:06:33;;;;;;;54.80;27.73;;;8.40;99.90;;;;;;5048630;28;20028;-55
2021/11/11 04:09:02;;;;;;;47.20;26.42;;;8.40;99.90;;;;;;5045040;28;20033;-55
2021/11/11 04:11:29;;;;;;;54.97;27.17;;;8.40;99.90;;;;;;5038796;28;20500;-53
2021/11/11 04:13:56;;;;;;;59.00;28.02;;;8.40;99.90;;;;;;5041503;28;20059;-52
2021/11/11 04:16:21;;;;;;;49.50;28.17;;;8.40;99.90;;;;;;5036643;28;20040;-52
2021/11/11 04:18:47;;;;;;;45.55;25.38;;;8.40;99.90;;;;;;5045897;28;20428;-53
2021/11/11 04:21:15;;;;;;;47.67;26.70;;;8.40;99.90;;;;;;5028182;28;20443;-52
2021/11/11 04:23:41;;;;;;;47.80;26.95;;;8.40;99.90;;;;;;5044544;28;20060;-53
2021/11/11 04:26:13;;;;;;;49.53;27.17;;;8.40;99.90;;;;;;5031879;28;20408;-54
2021/11/11 04:28:46;;;;;;;49.33;26.98;;;8.40;99.90;;;;;;5044392;28;20056;-54
2021/11/11 04:31:24;;;;;;;48.88;25.83;;;8.40;99.90;;;;;;5038310;28;20033;-54
2021/11/11 04:33:54;;;;;;;45.08;25.33;;;8.40;99.90;;;;;;5028481;28;20481;-55
2021/11/11 04:36:44;;;;;;;47.50;25.58;;;8.40;99.90;;;;;;5028369;28;20646;-52
2021/11/11 05:01:09;;;;;;;41.83;23.45;;;8.40;99.90;;;;;;5047633;28;20041;-52
2021/11/11 05:03:34;;;;;;;43.15;22.17;;;8.40;99.90;;;;;;5068805;23;20052;-57
2021/11/11 05:06:01;;;;;;;43.08;22.98;;;8.40;99.90;;;;;;5047527;28;20025;-57
2021/11/11 05:08:29;;;;;;;44.83;24.73;;;8.40;99.90;;;;;;5047765;28;20018;-53
2021/11/11 05:10:55;;;;;;;44.17;24.60;;;8.40;99.90;;;;;;5047554;28;20025;-56
2021/11/11 05:13:21;;;;;;;40.10;22.65;;;8.40;99.90;;;;;;5033641;28;20024;-57
2021/11/11 05:15:47;;;;;;;48.20;24.50;;;8.40;99.90;;;;;;5028049;28;20061;-55
2021/11/11 05:18:12;;;;;;;39.38;22.73;;;8.40;99.90;;;;;;5027446;28;20048;-55
2021/11/11 05:20:38;;;;;;;44.92;24.55;;;8.40;99.90;;;;;;5027991;28;20616;-55
2021/11/11 05:23:04;;;;;;;40.03;24.48;;;8.40;99.90;;;;;;5027660;28;20037;-56
2021/11/11 05:25:29;;;;;;;38.30;22.23;;;8.40;99.90;;;;;;5027652;28;20044;-54
2021/11/11 05:27:55;;;;;;;45.22;26.23;;;8.40;99.90;;;;;;5027538;28;20108;-56
2021/11/11 05:30:22;;;;;;;40.78;24.33;;;8.40;99.90;;;;;;5027723;28;20029;-57
2021/11/11 05:32:48;;;;;;;46.15;24.30;;;8.40;99.90;;;;;;5027113;28;20159;-53
2021/11/11 05:35:14;;;;;;;51.83;26.35;;;8.40;99.90;;;;;;5027386;28;20030;-55
2021/11/11 05:37:42;;;;;;;47.97;24.52;;;8.40;99.90;;;;;;5029466;28;20095;-56
2021/11/11 05:40:09;;;;;;;46.53;24.45;;;8.40;99.90;;;;;;5030756;28;20037;-56
2021/11/11 05:42:35;;;;;;;48.05;26.10;;;8.40;99.90;;;;;;5030529;28;20405;-53
2021/11/11 05:45:01;;;;;;;49.97;25.17;;;8.40;99.90;;;;;;5030819;28;20037;-55
2021/11/11 05:47:27;;;;;;;44.88;23.30;;;8.40;99.90;;;;;;5013180;28;20021;-56
2021/11/11 05:49:53;;;;;;;41.63;24.80;;;8.40;99.90;;;;;;5030963;28;20036;-55
2021/11/11 05:52:18;;;;;;;44.20;25.70;;;8.40;99.90;;;;;;5030745;28;20049;-53
2021/11/11 05:54:44;;;;;;;48.75;25.92;;;8.40;99.90;;;;;;5030891;28;20026;-55
2021/11/11 05:57:10;;;;;;;45.78;26.90;;;8.40;99.90;;;;;;5030161;28;20096;-53
2021/11/11 05:59:39;;;;;;;46.75;26.08;;;8.40;99.90;;;;;;5028825;28;20116;-55
2021/11/11 06:02:07;;;;;;;44.67;25.75;;;8.40;99.90;;;;;;5026949;28;20126;-55
2021/11/11 06:04:33;;;;;;;48.30;26.25;;;8.40;99.90;;;;;;5015223;28;20404;-57
2021/11/11 06:06:58;;;;;;;50.85;26.05;;;8.40;99.90;;;;;;5030165;28;20029;-55
2021/11/11 06:09:24;;;;;;;42.63;25.55;;;8.40;99.90;;;;;;5011932;28;20029;-56
2021/11/11 06:11:49;;;;;;;45.40;25.50;;;8.40;99.90;;;;;;5030358;28;20086;-56
2021/11/11 06:14:15;;;;;;;42.75;26.77;;;8.40;99.90;;;;;;5030389;28;20032;-56
2021/11/11 06:16:40;;;;;;;44.58;25.95;;;8.40;99.90;;;;;;5030549;28;20037;-53
2021/11/11 06:19:08;;;;;;;53.58;28.08;;;8.40;99.90;;;;;;5030007;28;20029;-56
2021/11/11 06:21:33;;;;;;;45.00;26.05;;;8.40;99.90;;;;;;5012665;28;20567;-54
2021/11/11 06:23:59;;;;;;;42.35;26.15;;;8.40;99.90;;;;;;5030366;28;20041;-55
2021/11/11 06:26:25;;;;;;;39.33;23.73;;;8.40;99.90;;;;;;5029520;28;20374;-53
2021/11/11 06:28:51;;;;;;;38.38;24.70;;;8.40;99.90;;;;;;5012600;28;20373;-57
2021/11/11 06:31:17;;;;;;;37.95;24.38;;;8.40;99.90;;;;;;5030451;28;20547;-54
2021/11/11 06:33:43;;;;;;;41.08;23.92;;;8.40;99.90;;;;;;5013004;28;20044;-55
2021/11/11 06:36:10;;;;;;;34.67;21.95;;;8.40;99.90;;;;;;5030528;28;20034;-52
2021/11/11 06:38:35;;;;;;;36.97;23.55;;;8.50;99.90;;;;;;5029695;28;20068;-56
2021/11/11 06:41:01;;;;;;;41.05;23.70;;;8.50;99.90;;;;;;5029388;28;20033;-54
2021/11/11 06:43:27;;;;;;;38.40;24.08;;;8.40;99.90;;;;;;5030258;28;20055;-53
2021/11/11 06:45:53;;;;;;;33.15;23.88;;;8.40;99.90;;;;;;5030744;28;20481;-51
2021/11/11 06:48:19;;;;;;;34.70;22.60;;;8.40;99.90;;;;;;5030049;28;20032;-51
2021/11/11 06:50:46;;;;;;;32.88;22.50;;;8.40;99.90;;;;;;5012035;28;20116;-53
2021/11/11 06:53:14;;;;;;;37.90;23.75;;;8.50;99.90;;;;;;5011345;28;20492;-51
2021/11/11 06:55:42;;;;;;;36.92;24.00;;;8.50;99.90;;;;;;5030244;28;20021;-54
2021/11/11 06:58:08;;;;;;;39.67;24.77;;;8.50;99.90;;;;;;5030466;28;20032;-54
2021/11/11 07:00:34;;;;;;;37.25;23.30;;;8.50;99.90;;;;;;5011676;28;20567;-52
2021/11/11 07:03:00;;;;;;;41.58;25.25;;;8.50;99.90;;;;;;5029119;28;20136;-52
2021/11/11 07:05:25;;;;;;;38.92;25.80;;;8.50;99.90;;;;;;5044240;28;20044;-57
2021/11/11 07:07:51;;;;;;;37.75;23.88;;;8.50;99.90;;;;;;5049970;28;20542;-56
2021/11/11 07:10:17;;;;;;;39.85;25.50;;;8.50;99.90;;;;;;5017805;28;20033;-57
2021/11/11 07:12:44;;;;;;;40.45;25.50;;;8.50;99.90;;;;;;5029324;28;20029;-58
2021/11/11 07:15:12;;;;;;;41.42;24.25;;;8.50;99.90;;;;;;5029153;28;20033;-55
2021/11/11 07:17:39;;;;;;;40.75;24.33;;;8.50;99.90;;;;;;5029920;28;20034;-56
2021/11/11 07:20:09;;;;;;;43.17;24.95;;;8.50;99.90;;;;;;5029046;28;20033;-55
2021/11/11 07:22:37;;;;;;;38.25;24.08;;;8.50;99.90;;;;;;5029491;28;20108;-53
2021/11/11 07:25:03;;;;;;;36.70;23.95;;;8.50;99.90;;;;;;5010277;28;20029;-54
2021/11/11 07:27:30;;;;;;;36.83;23.35;;;8.60;99.90;;;;;;5027061;28;20512;-55
2021/11/11 07:29:56;;;;;;;42.00;24.00;;;8.60;99.90;;;;;;5027908;28;20056;-56
2021/11/11 07:32:21;;;;;;;36.40;23.15;;;8.60;99.90;;;;;;5029269;28;20642;-56
2021/11/11 07:34:50;;;;;;;39.22;23.42;;;8.60;99.90;;;;;;5029333;28;20029;-57
2021/11/11 07:37:15;;;;;;;37.47;23.65;;;8.60;99.90;;;;;;5029332;28;20122;-58
2021/11/11 07:39:42;;;;;;;33.33;22.25;;;8.60;99.90;;;;;;5028952;28;20441;-57
2021/11/11 07:42:09;;;;;;;37.90;24.33;;;8.70;99.90;;;;;;5029118;28;20025;-57
2021/11/11 07:44:35;;;;;;;35.95;22.90;;;8.70;99.90;;;;;;5011346;28;20060;-55
2021/11/11 07:47:00;;;;;;;37.78;23.38;;;8.70;99.90;;;;;;5029058;28;20623;-56
2021/11/11 07:49:26;;;;;;;41.60;22.70;;;8.70;99.90;;;;;;5028309;28;20079;-57
2021/11/11 07:51:51;;;;;;;32.95;22.13;;;8.70;99.90;;;;;;5028938;28;20523;-57
2021/11/11 07:54:17;;;;;;;43.25;25.42;;;8.70;99.90;;;;;;5028460;28;20026;-58
2021/11/11 07:56:43;;;;;;;44.53;24.25;;;8.70;99.90;;;;;;5028901;28;20025;-57
2021/11/11 07:59:09;;;;;;;44.58;25.20;;;8.80;99.90;;;;;;5010341;28;20029;-57
2021/11/11 08:01:35;;;;;;;41.88;23.77;;;8.80;99.90;;;;;;5028994;28;20033;-54
2021/11/11 08:04:00;;;;;;;40.63;23.88;;;8.80;99.90;;;;;;5027613;28;20128;-56
2021/11/11 08:06:26;;;;;;;43.00;23.88;;;8.90;99.90;;;;;;5028308;28;20033;-55
2021/11/11 08:08:51;;;;;;;44.20;23.67;;;8.90;99.90;;;;;;5028240;28;20168;-57
2021/11/11 08:11:17;;;;;;;40.08;24.25;;;8.90;99.90;;;;;;5028054;28;20105;-56
2021/11/11 08:13:43;;;;;;;39.42;23.27;;;8.90;99.90;;;;;;5028483;28;20061;-55
2021/11/11 08:16:09;;;;;;;37.72;22.08;;;8.90;99.90;;;;;;5010742;28;20078;-56
2021/11/11 08:18:35;;;;;;;39.28;23.42;;;8.90;99.90;;;;;;5009918;28;20025;-56
2021/11/11 08:21:01;;;;;;;39.08;23.27;;;8.90;99.90;;;;;;5028332;28;20033;-57
2021/11/11 08:23:27;;;;;;;40.42;23.90;;;8.90;99.90;;;;;;5028168;28;20041;-54
2021/11/11 08:25:53;;;;;;;41.28;23.38;;;9.00;99.90;;;;;;5028012;28;20397;-55
2021/11/11 08:28:20;;;;;;;42.20;23.83;;;9.00;99.90;;;;;;5010354;28;20083;-54
2021/11/11 08:30:47;;;;;;;43.40;23.65;;;9.00;99.90;;;;;;5028251;28;20033;-54
2021/11/11 08:33:14;;;;;;;40.45;24.42;;;9.00;99.90;;;;;;5026576;28;20029;-57
2021/11/11 08:35:42;;;;;;;42.17;24.70;;;9.10;99.90;;;;;;5010617;28;20044;-58
2021/11/11 08:38:09;;;;;;;45.72;24.50;;;9.10;99.90;;;;;;5027965;28;20036;-57
2021/11/11 08:40:35;;;;;;;41.90;24.73;;;9.10;99.90;;;;;;5028498;28;20061;-56
2021/11/11 08:43:01;;;;;;;42.33;24.92;;;9.10;99.90;;;;;;5009088;28;20126;-55
2021/11/11 08:45:29;;;;;;;48.83;28.08;;;9.10;99.90;;;;;;5028060;28;20085;-54
2021/11/11 08:47:55;;;;;;;49.17;26.85;;;9.10;99.90;;;;;;5027982;28;20037;-58
2021/11/11 08:50:24;;;;;;;45.38;25.88;;;9.10;99.90;;;;;;5010028;28;20044;-58
2021/11/11 08:52:54;;;;;;;42.67;25.45;;;9.20;99.90;;;;;;5010418;28;20018;-60
2021/11/11 08:55:23;;;;;;;45.97;25.98;;;9.20;99.90;;;;;;5027087;28;20057;-56
2021/11/11 08:57:49;;;;;;;50.38;27.00;;;9.20;99.90;;;;;;5009496;28;20036;-56
2021/11/11 09:00:20;;;;;;;44.33;26.33;;;9.20;99.90;;;;;;5027256;28;20033;-53
2021/11/11 09:02:48;;;;;;;51.90;27.23;;;9.20;99.90;;;;;;5027815;28;20562;-56
2021/11/11 09:05:15;;;;;;;48.47;27.05;;;9.20;99.90;;;;;;5041057;28;20025;-54
2021/11/11 09:07:42;;;;;;;47.35;27.08;;;9.30;99.90;;;;;;5011474;28;20345;-56
2021/11/11 09:10:10;;;;;;;53.33;28.45;;;9.30;99.90;;;;;;5027719;28;20041;-55
2021/11/11 09:12:36;;;;;;;51.50;29.15;;;9.30;99.90;;;;;;5011578;28;20565;-54
2021/11/11 09:15:05;;;;;;;55.03;28.20;;;9.30;99.90;;;;;;5014675;28;20112;-54
2021/11/11 09:17:31;;;;;;;47.50;27.42;;;9.30;99.90;;;;;;5031158;28;20504;-54
2021/11/11 09:19:57;;;;;;;48.13;25.95;;;9.30;99.90;;;;;;5012399;28;20072;-57
2021/11/11 09:22:23;;;;;;;53.50;29.38;;;9.40;99.90;;;;;;5030802;28;20116;-55
2021/11/11 09:24:49;;;;;;;51.85;31.33;;;9.40;99.90;;;;;;5032127;28;20033;-56
2021/11/11 09:27:14;;;;;;;50.97;29.88;;;9.40;99.90;;;;;;5014471;28;20048;-55
2021/11/11 09:29:40;;;;;;;58.42;31.33;;;9.40;99.90;;;;;;5031826;28;20045;-57
2021/11/11 09:32:06;;;;;;;59.88;30.02;;;9.40;99.90;;;;;;5031584;28;20500;-52
2021/11/11 09:34:32;;;;;;;54.78;31.67;;;9.40;99.90;;;;;;5031723;28;20073;-56
2021/11/11 09:36:57;;;;;;;53.10;29.02;;;9.40;99.90;;;;;;5014297;28;20064;-58
2021/11/11 09:39:23;;;;;;;55.65;29.77;;;9.40;99.90;;;;;;5013678;28;20045;-57
2021/11/11 09:41:51;;;;;;;57.70;31.90;;;9.40;99.90;;;;;;5031198;28;20033;-57
2021/11/11 09:44:17;;;;;;;56.75;31.77;;;9.40;99.90;;;;;;5013411;28;20038;-52
2021/11/11 09:46:42;;;;;;;58.92;32.05;;;9.40;99.90;;;;;;5031787;28;20040;-54
2021/11/11 09:49:08;;;;;;;57.13;32.80;;;9.40;99.90;;;;;;5031115;28;20033;-55
2021/11/11 09:51:34;;;;;;;53.03;31.38;;;9.40;99.90;;;;;;5031474;28;20026;-54
2021/11/11 09:59:28;;;;;;;;;;;9.40;99.90;;;;;;5031697;28;20049;-56
2021/11/11 10:01:56;;;;;;;58.45;30.25;;;9.50;99.90;;;;;;5030275;28;19970;-52
2021/11/11 10:04:22;;;;;;;55.15;30.55;;;9.50;99.90;;;;;;5036098;28;20009;-55
2021/11/11 10:06:48;;;;;;;58.60;33.38;;;9.50;99.90;;;;;;5018342;28;20401;-57
2021/11/11 10:09:19;;;;;;;63.40;32.47;;;9.50;99.90;;;;;;5030938;28;20029;-55
2021/11/11 10:11:50;;;;;;;54.60;30.50;;;9.50;99.90;;;;;;5029205;28;20056;-56
2021/11/11 10:14:37;;;;;;;52.33;30.55;;;9.60;99.90;;;;;;5031042;28;20024;-58
2021/11/11 10:17:10;;;;;;;57.13;30.60;;;9.60;99.90;;;;;;5030293;28;20034;-57
2021/11/11 10:19:40;;;;;;;56.33;31.92;;;9.50;99.90;;;;;;5012811;28;20036;-55
2021/11/11 10:22:19;;;;;;;59.97;32.63;;;9.60;99.90;;;;;;5027914;28;20645;-58
2021/11/11 10:24:50;;;;;;;50.78;30.35;;;9.60;99.90;;;;;;5032868;28;20052;-56
2021/11/11 10:27:43;;;;;;;53.20;29.85;;;9.60;99.90;;;;;;5031075;28;20108;-55
2021/11/11 10:30:17;;;;;;;58.35;31.10;;;9.60;99.90;;;;;;5029835;28;20562;-54
2021/11/11 10:32:44;;;;;;;64.43;32.42;;;9.60;99.90;;;;;;5029328;28;20026;-55
2021/11/11 10:35:31;;;;;;;50.58;29.50;;;9.60;99.90;;;;;;5029783;28;20105;-55
2021/11/11 10:38:03;;;;;;;48.80;29.48;;;9.70;99.90;;;;;;5026822;28;20044;-57
2021/11/11 10:40:31;;;;;;;59.35;31.50;;;9.70;99.90;;;;;;5028762;28;20512;-53
2021/11/11 10:42:58;;;;;;;50.55;30.05;;;9.70;99.90;;;;;;5029929;28;20108;-52
2021/11/11 10:45:31;;;;;;;55.83;29.27;;;9.70;99.90;;;;;;5027150;28;20037;-56
2021/11/11 10:48:03;;;;;;;52.47;30.15;;;9.70;99.90;;;;;;5028767;28;20389;-52
2021/11/11 10:50:32;;;;;;;49.53;28.70;;;9.70;99.90;;;;;;5010757;28;20034;-55
2021/11/11 10:53:01;;;;;;;51.08;29.73;;;9.70;99.90;;;;;;5029693;28;20439;-54
2021/11/11 10:55:40;;;;;;;47.90;29.15;;;9.70;99.90;;;;;;5030147;28;20021;-53
2021/11/11 10:58:16;;;;;;;58.25;30.45;;;9.70;99.90;;;;;;5011998;28;20028;-56
2021/11/11 11:00:53;;;;;;;54.47;29.50;;;9.70;99.90;;;;;;5029819;28;20044;-52
2021/11/11 11:03:35;;;;;;;49.63;30.88;;;9.70;99.90;;;;;;5028342;28;20412;-55
2021/11/11 11:06:05;;;;;;;50.13;29.23;;;9.70;99.90;;;;;;5029794;28;20087;-55
2021/11/11 11:08:33;;;;;;;48.20;27.88;;;9.70;99.90;;;;;;5029505;28;20061;-54
2021/11/11 11:11:12;;;;;;;48.97;29.73;;;9.70;99.90;;;;;;5029042;28;20060;-57
2021/11/11 11:13:42;;;;;;;47.40;28.20;;;9.70;99.90;;;;;;5011572;28;20091;-54
2021/11/11 11:16:09;;;;;;;52.35;29.83;;;9.70;99.90;;;;;;5011795;28;20045;-56
2021/11/11 11:18:38;;;;;;;48.08;27.65;;;9.70;99.90;;;;;;5029164;28;20567;-57
2021/11/11 11:21:11;;;;;;;50.97;29.58;;;9.70;99.90;;;;;;5011785;28;20029;-55
2021/11/11 11:23:52;;;;;;;41.70;27.15;;;9.70;99.90;;;;;;5029497;28;20025;-56
2021/11/11 11:26:24;;;;;;;48.17;27.83;;;9.70;99.90;;;;;;5029242;28;20030;-55
2021/11/11 11:29:00;;;;;;;48.50;29.88;;;9.70;99.90;;;;;;5029068;28;20030;-53
2021/11/11 11:31:47;;;;;;;46.67;28.92;;;9.70;99.90;;;;;;5029212;28;20034;-57
2021/11/11 11:34:25;;;;;;;44.40;27.23;;;9.70;99.90;;;;;;5011054;28;20017;-57
2021/11/11 11:37:05;;;;;;;50.97;29.13;;;9.80;99.90;;;;;;5028956;28;20508;-58
2021/11/11 11:39:42;;;;;;;44.95;27.45;;;9.80;99.90;;;;;;5029164;28;20021;-58
2021/11/11 11:42:11;;;;;;;45.00;26.90;;;9.80;99.90;;;;;;5011505;28;20110;-56
2021/11/11 11:44:50;;;;;;;45.22;27.55;;;9.80;99.90;;;;;;5011199;28;20488;-56
2021/11/11 11:47:42;;;;;;;50.80;28.85;;;9.80;99.90;;;;;;5029036;28;20092;-56
2021/11/11 11:50:21;;;;;;;45.70;28.23;;;9.80;99.90;;;;;;5029541;28;20026;-55
2021/11/11 11:53:03;;;;;;;42.95;27.63;;;9.90;99.90;;;;;;5029105;28;20108;-55
2021/11/11 11:58:07;;;;;;;44.03;27.83;;;9.90;99.90;;;;;;5029353;28;20159;-52
2021/11/11 12:11:55;;;;;;;42.05;28.90;;;9.90;99.90;;;;;;5049266;28;20029;-53
2021/11/11 12:14:44;;;;;;;46.67;26.85;;;9.90;99.90;;;;;;5048797;28;20499;-58
2021/11/11 12:29:06;;;;;;;40.08;25.00;;;9.90;99.90;;;;;;5028842;28;20045;-55
2021/11/11 12:39:49;;;;;;;32.83;21.75;;;9.80;99.90;;;;;;5028851;28;20055;-53
2021/11/11 12:42:24;;;;;;;28.85;22.48;;;9.80;99.90;;;;;;5028107;28;20091;-58
2021/11/11 12:45:07;;;;;;;29.40;21.33;;;9.80;99.90;;;;;;5028218;28;20320;-57
2021/11/11 12:47:47;;;;;;;31.65;22.45;;;9.80;99.90;;;;;;5014993;28;20051;-55
2021/11/11 12:50:44;;;;;;;31.27;21.70;;;9.80;99.90;;;;;;5032110;28;20030;-54
2021/11/11 12:53:12;;;;;;;34.47;22.73;;;9.90;99.90;;;;;;5011797;28;20099;-56
2021/11/11 12:55:57;;;;;;;30.73;22.30;;;9.80;99.90;;;;;;5032077;28;20021;-55
2021/11/11 12:58:49;;;;;;;30.85;22.40;;;9.80;99.90;;;;;;5032208;28;20028;-56
2021/11/11 13:01:36;;;;;;;35.25;22.85;;;9.80;99.90;;;;;;5014954;28;20040;-56
2021/11/11 13:04:01;;;;;;;29.42;22.10;;;9.80;99.90;;;;;;5034306;28;20029;-58
2021/11/11 13:06:49;;;;;;;31.77;21.50;;;9.80;99.90;;;;;;5020156;28;20396;-59
2021/11/11 13:09:19;;;;;;;30.58;21.80;;;9.80;99.90;;;;;;5032160;28;20489;-58
2021/11/11 13:11:57;;;;;;;31.08;21.23;;;9.80;99.90;;;;;;5032202;28;20022;-58
2021/11/11 13:14:35;;;;;;;24.10;18.80;;;9.80;99.90;;;;;;5010914;28;20540;-56
2021/11/11 13:17:00;;;;;;;26.80;18.60;;;9.80;99.90;;;;;;5012982;28;20497;-53
2021/11/11 13:20:05;;;;;;;25.15;18.40;;;9.80;99.90;;;;;;5031062;28;20030;-58
2021/11/11 13:23:24;;;;;;;23.33;18.05;;;9.80;99.90;;;;;;4976093;28;20089;-58
2021/11/11 15:20:51;;;;;;;16.10;12.85;;;9.80;99.90;;;;;;5029330;28;20152;-55
2021/11/11 16:01:16;;;;;;;25.30;19.65;;;9.70;99.90;;;;;;5029424;28;20115;-59
2021/11/11 16:04:05;;;;;;;20.00;16.88;;;9.80;99.90;;;;;;5011310;28;20171;-57
2021/11/11 16:20:17;;;;;;;19.25;14.25;;;9.70;99.90;;;;;;5009421;28;20413;-59
2021/11/11 16:27:40;;;;;;;20.58;15.63;;;9.70;99.90;;;;;;5008508;28;20505;-55
2021/11/11 16:30:08;;;;;;;24.17;17.88;;;9.70;99.90;;;;;;5008450;28;20029;-58
2021/11/11 16:32:35;;;;;;;24.08;16.70;;;9.70;99.90;;;;;;5008580;28;20503;-57
2021/11/11 16:35:00;;;;;;;24.35;17.90;;;9.70;99.90;;;;;;5006773;28;20026;-58
2021/11/11 16:37:28;;;;;;;23.50;18.73;;;9.70;99.90;;;;;;5008462;28;20113;-59
2021/11/11 16:39:54;;;;;;;27.52;17.85;;;9.70;99.90;;;;;;5007331;28;20021;-56